createdAt,value
2022-08-31T00:01:31.573Z,22.57
2022-08-31T00:04:03.532Z,22.56
2022-08-31T00:06:33.074Z,22.52
2022-08-31T00:09:02.936Z,22.40
2022-08-31T00:11:37.891Z,22.40
2022-08-31T00:14:13.055Z,22.40
2022-08-31T00:16:43.896Z,22.42
2022-08-31T00:19:11.235Z,22.41
2022-08-31T00:21:41.725Z,22.40
2022-08-31T00:24:23.332Z,22.45
2022-08-31T00:26:51.133Z,22.29
2022-08-31T00:29:19.165Z,22.13
2022-08-31T00:31:47.710Z,22.03
2022-08-31T00:34:17.256Z,21.87
2022-08-31T00:36:50.714Z,21.88
2022-08-31T00:39:18.036Z,22.03
2022-08-31T00:41:47.325Z,21.91
2022-08-31T00:44:14.764Z,21.90
2022-08-31T00:46:43.834Z,21.94
2022-08-31T00:49:43.532Z,21.88
2022-08-31T00:52:24.966Z,21.87
2022-08-31T00:55:05.153Z,21.83
2022-08-31T00:57:38.609Z,21.81
2022-08-31T01:00:10.420Z,21.78
2022-08-31T01:02:40.173Z,21.75
2022-08-31T01:05:12.164Z,21.76
2022-08-31T01:07:42.427Z,21.73
2022-08-31T01:10:13.012Z,21.63
2022-08-31T01:12:44.524Z,21.58
2022-08-31T01:15:15.940Z,21.44
2022-08-31T01:17:44.890Z,21.46
2022-08-31T01:20:28.039Z,21.49
2022-08-31T01:23:21.484Z,21.42
2022-08-31T01:25:51.460Z,21.31
2022-08-31T01:28:21.805Z,21.21
2022-08-31T01:31:11.986Z,21.25
2022-08-31T01:33:42.284Z,21.26
2022-08-31T01:36:15.468Z,21.14
2022-08-31T01:38:44.927Z,21.26
2022-08-31T01:41:14.333Z,21.30
2022-08-31T01:43:42.694Z,21.33
2022-08-31T01:46:13.375Z,21.29
2022-08-31T01:48:46.296Z,21.28
2022-08-31T01:51:18.860Z,21.27
2022-08-31T01:53:48.812Z,21.17
2022-08-31T01:56:43.967Z,21.27
2022-08-31T01:59:17.887Z,21.21
2022-08-31T02:01:58.931Z,21.25
2022-08-31T02:04:31.806Z,21.25
2022-08-31T02:07:08.376Z,21.21
2022-08-31T02:09:40.446Z,21.14
2022-08-31T02:12:12.805Z,21.12
2022-08-31T02:14:40.293Z,21.08
2022-08-31T02:17:11.892Z,21.05
2022-08-31T02:19:41.733Z,21.00
2022-08-31T02:22:11.254Z,21.02
2022-08-31T02:24:38.453Z,20.94
2022-08-31T02:27:06.936Z,20.96
2022-08-31T02:29:38.450Z,20.97
2022-08-31T02:32:06.830Z,20.95
2022-08-31T02:34:36.715Z,20.93
2022-08-31T02:37:05.094Z,20.96
2022-08-31T02:39:38.301Z,20.96
2022-08-31T02:42:16.281Z,20.92
2022-08-31T02:44:46.260Z,20.89
2022-08-31T02:47:13.356Z,20.92
2022-08-31T02:50:03.015Z,20.72
2022-08-31T02:52:30.334Z,20.58
2022-08-31T02:54:57.544Z,20.56
2022-08-31T02:57:26.030Z,20.59
2022-08-31T02:59:57.326Z,20.61
2022-08-31T03:02:32.148Z,20.47
2022-08-31T03:05:08.424Z,20.48
2022-08-31T03:07:40.995Z,20.56
2022-08-31T03:10:17.425Z,20.57
2022-08-31T03:12:47.019Z,20.57
2022-08-31T03:15:16.134Z,20.57
2022-08-31T03:17:47.810Z,20.53
2022-08-31T03:20:20.311Z,20.55
2022-08-31T03:22:50.792Z,20.57
2022-08-31T03:25:21.981Z,20.54
2022-08-31T03:27:51.015Z,20.63
2022-08-31T03:30:22.024Z,20.64
2022-08-31T03:33:13.031Z,20.65
2022-08-31T03:35:44.869Z,20.58
2022-08-31T03:38:19.092Z,20.55
2022-08-31T03:40:51.539Z,20.49
2022-08-31T03:43:19.293Z,20.37
2022-08-31T03:45:50.284Z,20.42
2022-08-31T03:48:17.637Z,20.55
2022-08-31T03:50:55.215Z,20.54
2022-08-31T03:53:30.354Z,20.51
2022-08-31T03:56:04.187Z,20.53
2022-08-31T03:58:39.034Z,20.58
2022-08-31T04:01:13.978Z,20.61
2022-08-31T04:04:18.548Z,20.64
2022-08-31T04:07:21.170Z,20.64
2022-08-31T04:10:11.516Z,20.67
2022-08-31T04:12:58.926Z,20.65
2022-08-31T04:15:38.313Z,20.51
2022-08-31T04:18:43.164Z,20.43
2022-08-31T04:21:23.023Z,20.48
2022-08-31T04:23:55.078Z,20.47
2022-08-31T04:26:28.425Z,20.60
2022-08-31T04:28:59.635Z,20.71
2022-08-31T04:31:31.378Z,20.79
2022-08-31T04:34:10.560Z,20.81
2022-08-31T04:36:38.839Z,20.81
2022-08-31T04:39:10.804Z,20.79
2022-08-31T04:41:41.083Z,20.79
2022-08-31T04:44:17.716Z,20.68
2022-08-31T04:46:47.803Z,20.59
2022-08-31T04:49:17.672Z,20.53
2022-08-31T04:51:46.135Z,20.58
2022-08-31T04:54:17.285Z,20.58
2022-08-31T04:56:45.996Z,20.62
2022-08-31T04:59:27.518Z,20.57
2022-08-31T05:02:15.144Z,20.25
2022-08-31T05:04:51.744Z,20.28
2022-08-31T05:07:18.854Z,20.38
2022-08-31T05:09:48.555Z,20.49
2022-08-31T05:12:17.406Z,20.53
2022-08-31T05:14:47.124Z,20.56
2022-08-31T05:17:23.616Z,20.63
2022-08-31T05:19:52.998Z,20.75
2022-08-31T05:22:22.854Z,20.73
2022-08-31T05:24:57.355Z,20.68
2022-08-31T05:27:26.681Z,20.65
2022-08-31T05:29:56.325Z,20.67
2022-08-31T05:32:46.575Z,20.60
2022-08-31T05:35:17.325Z,20.64
2022-08-31T05:37:47.890Z,20.77
2022-08-31T05:40:17.628Z,20.82
2022-08-31T05:42:48.888Z,20.83
2022-08-31T05:45:18.981Z,20.88
2022-08-31T05:47:51.418Z,20.96
2022-08-31T05:50:22.452Z,20.91
2022-08-31T05:52:52.846Z,20.87
2022-08-31T05:55:23.324Z,20.96
2022-08-31T05:57:52.915Z,20.98
2022-08-31T06:00:21.597Z,20.74
2022-08-31T06:02:57.061Z,20.66
2022-08-31T06:05:24.857Z,20.82
2022-08-31T06:07:52.458Z,20.86
2022-08-31T06:10:22.122Z,20.93
2022-08-31T06:12:50.757Z,20.98
2022-08-31T06:15:18.726Z,20.86
2022-08-31T06:17:47.054Z,20.73
2022-08-31T06:20:18.234Z,20.79
2022-08-31T06:22:51.110Z,20.82
2022-08-31T06:25:39.242Z,20.85
2022-08-31T06:28:10.683Z,21.02
2022-08-31T06:30:55.060Z,21.22
2022-08-31T06:33:26.486Z,21.27
2022-08-31T06:36:17.819Z,21.47
2022-08-31T06:39:01.251Z,21.80
2022-08-31T06:41:49.687Z,22.11
2022-08-31T06:44:38.244Z,22.48
2022-08-31T06:47:10.136Z,22.30
2022-08-31T06:49:40.364Z,21.90
2022-08-31T06:52:08.958Z,22.04
2022-08-31T06:54:40.962Z,22.27
2022-08-31T06:57:28.285Z,22.53
2022-08-31T07:00:33.877Z,23.02
2022-08-31T07:03:25.091Z,23.29
2022-08-31T07:05:55.004Z,23.37
2022-08-31T07:08:26.846Z,23.28
2022-08-31T07:10:56.752Z,23.37
2022-08-31T07:13:27.090Z,23.61
2022-08-31T07:16:11.611Z,23.60
2022-08-31T07:18:41.645Z,23.50
2022-08-31T07:21:24.315Z,23.26
2022-08-31T07:24:01.334Z,23.33
2022-08-31T07:26:36.516Z,23.31
2022-08-31T07:29:13.843Z,23.32
2022-08-31T07:31:50.425Z,23.20
2022-08-31T07:34:31.252Z,23.24
2022-08-31T07:37:39.323Z,23.20
2022-08-31T07:40:31.135Z,23.42
2022-08-31T07:43:06.935Z,23.57
2022-08-31T07:45:39.143Z,23.47
2022-08-31T07:48:11.525Z,23.57
2022-08-31T07:51:02.224Z,23.76
2022-08-31T07:53:50.537Z,23.71
2022-08-31T07:56:39.057Z,23.70
2022-08-31T07:59:17.524Z,23.59
2022-08-31T08:01:56.116Z,23.57
2022-08-31T08:04:28.510Z,23.59
2022-08-31T08:07:17.425Z,23.62
2022-08-31T08:10:22.113Z,23.93
2022-08-31T08:13:14.133Z,23.83
2022-08-31T08:16:01.671Z,24.11
2022-08-31T08:18:50.771Z,24.42
2022-08-31T08:21:22.370Z,24.55
2022-08-31T08:23:53.085Z,24.71
2022-08-31T08:26:21.613Z,24.62
2022-08-31T08:29:11.268Z,24.53
2022-08-31T08:31:50.524Z,24.31
2022-08-31T08:34:22.370Z,24.31
2022-08-31T08:37:02.216Z,24.33
2022-08-31T08:39:34.394Z,24.45
2022-08-31T08:42:14.410Z,24.50
2022-08-31T08:44:44.315Z,24.46
2022-08-31T08:47:23.911Z,24.30
2022-08-31T08:50:07.605Z,24.27
2022-08-31T08:52:44.167Z,24.35
2022-08-31T08:55:19.459Z,24.26
2022-08-31T08:57:52.536Z,24.38
2022-08-31T09:00:32.141Z,24.41
2022-08-31T09:03:47.461Z,24.34
2022-08-31T09:06:54.445Z,24.56
2022-08-31T09:09:42.765Z,24.64
2022-08-31T09:13:02.416Z,24.62
2022-08-31T09:15:53.536Z,24.81
2022-08-31T09:19:03.410Z,24.87
2022-08-31T09:21:38.579Z,25.11
2022-08-31T09:24:20.355Z,25.24
2022-08-31T09:27:23.336Z,25.41
2022-08-31T09:30:03.559Z,25.54
2022-08-31T09:32:35.947Z,25.62
2022-08-31T09:35:13.067Z,25.62
2022-08-31T09:37:50.023Z,25.61
2022-08-31T09:40:39.134Z,25.64
2022-08-31T09:43:17.879Z,25.81
2022-08-31T09:46:23.744Z,25.89
2022-08-31T09:48:59.081Z,25.98
2022-08-31T09:51:34.000Z,25.98
2022-08-31T09:54:37.784Z,25.90
2022-08-31T09:57:10.297Z,25.70
2022-08-31T09:59:52.614Z,25.54
2022-08-31T10:02:22.899Z,25.58
2022-08-31T10:05:07.975Z,25.62
2022-08-31T10:08:07.677Z,25.55
2022-08-31T10:10:38.707Z,25.59
2022-08-31T10:13:22.317Z,25.67
2022-08-31T10:16:44.480Z,25.76
2022-08-31T10:19:42.778Z,25.75
2022-08-31T10:22:27.835Z,25.76
2022-08-31T10:25:04.836Z,25.73
2022-08-31T10:27:56.302Z,25.64
2022-08-31T10:31:26.625Z,25.62
2022-08-31T10:34:37.920Z,25.67
2022-08-31T10:37:57.435Z,25.62
2022-08-31T10:40:50.844Z,25.63
2022-08-31T10:43:32.257Z,25.67
2022-08-31T10:46:04.914Z,25.65
2022-08-31T10:48:34.400Z,25.63
2022-08-31T10:51:19.029Z,25.59
2022-08-31T10:54:21.905Z,25.53
2022-08-31T10:57:22.486Z,25.51
2022-08-31T11:00:37.585Z,25.37
2022-08-31T11:03:41.413Z,25.28
2022-08-31T11:06:36.228Z,25.20
2022-08-31T11:09:50.947Z,25.05
2022-08-31T11:12:28.856Z,24.85
2022-08-31T11:15:22.707Z,24.90
2022-08-31T11:18:39.574Z,24.87
2022-08-31T11:21:46.710Z,24.79
2022-08-31T11:24:36.930Z,24.82
2022-08-31T11:27:26.676Z,24.84
2022-08-31T11:30:08.343Z,24.72
2022-08-31T11:32:51.348Z,24.50
2022-08-31T11:36:13.297Z,24.36
2022-08-31T11:38:59.291Z,24.32
2022-08-31T11:41:50.952Z,24.31
2022-08-31T11:44:34.210Z,24.15
2022-08-31T11:47:09.057Z,23.89
2022-08-31T11:49:47.173Z,23.82
2022-08-31T11:52:50.932Z,23.73
2022-08-31T11:55:48.844Z,23.73
2022-08-31T11:58:33.958Z,23.74
2022-08-31T12:01:21.876Z,23.83
2022-08-31T12:03:52.303Z,23.85
2022-08-31T12:06:32.707Z,23.76
2022-08-31T12:09:48.354Z,23.73
2022-08-31T12:12:56.754Z,23.75
2022-08-31T12:16:05.125Z,23.73
2022-08-31T12:19:42.708Z,23.67
2022-08-31T12:22:56.067Z,23.85
2022-08-31T12:25:55.132Z,23.98
2022-08-31T12:29:01.931Z,23.96
2022-08-31T12:31:32.257Z,23.87
2022-08-31T12:34:23.706Z,24.06
2022-08-31T12:36:54.052Z,24.27
2022-08-31T12:39:24.399Z,24.34
2022-08-31T12:42:01.492Z,24.30
2022-08-31T12:44:33.600Z,24.29
2022-08-31T12:48:07.883Z,24.46
2022-08-31T12:51:19.910Z,24.59
2022-08-31T12:53:52.499Z,24.46
2022-08-31T12:56:53.026Z,24.41
2022-08-31T13:00:01.660Z,24.65
2022-08-31T13:02:34.774Z,24.82
2022-08-31T13:05:41.808Z,24.88
2022-08-31T13:08:26.869Z,24.91
2022-08-31T13:10:59.104Z,24.92
2022-08-31T13:13:30.200Z,24.96
2022-08-31T13:16:11.419Z,25.12
2022-08-31T13:18:40.491Z,25.15
2022-08-31T13:21:15.030Z,25.17
2022-08-31T13:23:48.939Z,24.98
2022-08-31T13:26:27.586Z,24.85
2022-08-31T13:29:10.200Z,24.67
2022-08-31T13:31:52.179Z,24.64
2022-08-31T13:34:30.308Z,24.47
2022-08-31T13:37:02.213Z,24.48
2022-08-31T13:39:56.534Z,24.45
2022-08-31T13:42:43.536Z,24.23
2022-08-31T13:45:34.109Z,24.10
2022-08-31T13:48:17.253Z,24.18
2022-08-31T13:50:55.252Z,24.30
2022-08-31T13:53:43.055Z,24.35
2022-08-31T13:56:54.326Z,24.16
2022-08-31T13:59:43.893Z,24.11
2022-08-31T14:02:24.949Z,23.98
2022-08-31T14:05:04.536Z,24.02
2022-08-31T14:07:39.952Z,24.07
2022-08-31T14:10:22.951Z,24.09
2022-08-31T14:13:18.415Z,23.97
2022-08-31T14:16:07.177Z,23.98
2022-08-31T14:18:50.105Z,24.03
2022-08-31T14:21:24.044Z,24.17
2022-08-31T14:24:03.353Z,24.26
2022-08-31T14:26:42.074Z,24.30
2022-08-31T14:29:12.695Z,24.37
2022-08-31T14:31:54.039Z,24.40
2022-08-31T14:34:48.576Z,24.35
2022-08-31T14:37:23.391Z,24.41
2022-08-31T14:40:08.074Z,24.43
2022-08-31T14:42:39.500Z,24.44
2022-08-31T14:45:21.761Z,24.41
2022-08-31T14:47:53.160Z,24.39
2022-08-31T14:50:29.266Z,24.45
2022-08-31T14:52:59.196Z,24.37
2022-08-31T14:55:30.398Z,24.40
2022-08-31T14:58:12.079Z,24.45
2022-08-31T15:00:53.508Z,24.36
2022-08-31T15:03:31.815Z,24.39
2022-08-31T15:06:07.783Z,24.42
2022-08-31T15:08:39.520Z,24.48
2022-08-31T15:11:17.744Z,24.64
2022-08-31T15:13:57.273Z,24.70
2022-08-31T15:16:31.132Z,24.65
2022-08-31T15:18:59.526Z,24.66
2022-08-31T15:21:32.471Z,24.63
2022-08-31T15:24:04.536Z,24.71
2022-08-31T15:26:33.572Z,24.75
2022-08-31T15:29:03.675Z,25.00
2022-08-31T15:31:32.572Z,25.08
2022-08-31T15:34:08.276Z,25.02
2022-08-31T15:36:39.189Z,25.13
2022-08-31T15:39:08.067Z,25.19
2022-08-31T15:41:37.572Z,25.08
2022-08-31T15:44:13.012Z,25.04
2022-08-31T15:47:02.547Z,25.13
2022-08-31T15:49:32.945Z,25.18
2022-08-31T15:52:03.526Z,25.13
2022-08-31T15:57:20.951Z,24.98
2022-08-31T15:59:52.445Z,24.89
2022-08-31T16:02:21.055Z,24.71
2022-08-31T16:04:51.654Z,24.41
2022-08-31T16:07:23.115Z,24.33
2022-08-31T16:09:53.819Z,24.42
2022-08-31T16:12:24.063Z,24.55
2022-08-31T16:14:53.093Z,24.56
2022-08-31T16:17:20.321Z,24.56
2022-08-31T16:19:49.743Z,24.56
2022-08-31T16:22:19.192Z,24.61
2022-08-31T16:24:49.106Z,24.49
2022-08-31T16:27:19.355Z,24.39
2022-08-31T16:29:51.992Z,24.34
2022-08-31T16:32:20.098Z,24.27
2022-08-31T16:34:47.609Z,24.25
2022-08-31T16:37:16.336Z,24.14
2022-08-31T16:39:47.899Z,24.04
2022-08-31T16:42:16.515Z,24.00
2022-08-31T16:44:47.905Z,24.02
2022-08-31T16:47:21.455Z,23.99
2022-08-31T16:49:52.305Z,23.96
2022-08-31T16:52:30.378Z,23.94
2022-08-31T16:54:59.821Z,23.95
2022-08-31T16:57:32.921Z,23.90
2022-08-31T17:00:07.590Z,23.91
2022-08-31T17:02:38.104Z,23.85
2022-08-31T17:05:09.742Z,23.83
2022-08-31T17:07:43.584Z,23.84
2022-08-31T17:10:11.910Z,23.78
2022-08-31T17:12:42.869Z,23.67
2022-08-31T17:15:14.133Z,23.68
2022-08-31T17:17:42.531Z,23.56
2022-08-31T17:20:13.975Z,23.43
2022-08-31T17:22:49.789Z,23.34
2022-08-31T17:25:22.676Z,23.30
2022-08-31T17:28:08.555Z,23.29
2022-08-31T17:30:38.087Z,23.22
2022-08-31T17:33:17.530Z,23.20
2022-08-31T17:35:44.813Z,23.15
2022-08-31T17:38:12.901Z,23.05
2022-08-31T17:40:40.223Z,23.08
2022-08-31T17:43:07.304Z,23.06
2022-08-31T17:45:39.188Z,23.02
2022-08-31T17:48:06.327Z,23.02
2022-08-31T17:50:33.826Z,23.00
2022-08-31T17:53:03.609Z,23.09
2022-08-31T17:55:32.949Z,23.04
2022-08-31T17:58:03.589Z,23.10
2022-08-31T18:00:33.454Z,23.15
2022-08-31T18:03:02.636Z,23.16
2022-08-31T18:05:32.949Z,23.16
2022-08-31T18:08:03.608Z,23.12
2022-08-31T18:10:33.229Z,23.12
2022-08-31T18:13:04.275Z,23.10
2022-08-31T18:15:34.731Z,23.18
2022-08-31T18:18:04.254Z,22.93
2022-08-31T18:20:34.190Z,22.97
2022-08-31T18:23:03.128Z,23.04
2022-08-31T18:25:36.840Z,23.04
2022-08-31T18:28:07.645Z,23.02
2022-08-31T18:30:43.163Z,22.95
2022-08-31T18:33:13.951Z,22.94
2022-08-31T18:35:51.708Z,22.90
2022-08-31T18:38:22.969Z,22.89
2022-08-31T18:41:13.343Z,22.97
2022-08-31T18:44:04.709Z,22.91
2022-08-31T18:46:33.955Z,22.88
2022-08-31T18:49:12.168Z,22.85
2022-08-31T18:51:49.366Z,22.92
2022-08-31T18:54:18.899Z,22.78
2022-08-31T18:56:55.691Z,22.64
2022-08-31T18:59:26.091Z,22.74
2022-08-31T19:01:56.796Z,22.60
2022-08-31T19:04:27.843Z,22.62
2022-08-31T19:06:57.312Z,22.66
2022-08-31T19:09:25.369Z,22.78
2022-08-31T19:11:53.449Z,22.84
2022-08-31T19:14:26.407Z,22.80
2022-08-31T19:17:03.968Z,22.75
2022-08-31T19:19:36.254Z,22.79
2022-08-31T19:22:06.658Z,22.88
2022-08-31T19:24:44.407Z,22.79
2022-08-31T19:27:17.362Z,22.78
2022-08-31T19:29:45.447Z,22.74
2022-08-31T19:32:14.087Z,22.63
2022-08-31T19:34:52.489Z,22.61
2022-08-31T19:37:22.115Z,22.56
2022-08-31T19:39:51.658Z,22.50
2022-08-31T19:42:40.232Z,22.40
2022-08-31T19:45:41.033Z,22.35
2022-08-31T19:48:12.567Z,22.29
2022-08-31T19:50:43.928Z,22.21
2022-08-31T19:53:20.713Z,22.18
2022-08-31T19:55:53.695Z,22.11
2022-08-31T19:58:26.642Z,22.05
2022-08-31T20:01:00.843Z,21.99
2022-08-31T20:03:34.386Z,21.98
2022-08-31T20:06:13.059Z,21.92
2022-08-31T20:08:44.498Z,21.88
2022-08-31T20:11:20.749Z,21.85
2022-08-31T20:13:51.208Z,21.82
2022-08-31T20:16:20.187Z,21.80
2022-08-31T20:18:52.627Z,21.74
2022-08-31T20:21:28.456Z,21.69
2022-08-31T20:24:01.804Z,21.73
2022-08-31T20:26:36.075Z,21.62
2022-08-31T20:29:10.484Z,21.44
2022-08-31T20:31:41.516Z,21.39
2022-08-31T20:34:18.560Z,21.41
2022-08-31T20:37:01.200Z,21.46
2022-08-31T20:39:33.049Z,21.40
2022-08-31T20:42:04.006Z,21.42
2022-08-31T20:44:37.957Z,21.40
2022-08-31T20:47:31.416Z,21.43
2022-08-31T20:50:02.483Z,21.42
2022-08-31T20:52:32.315Z,21.35
2022-08-31T20:55:03.367Z,21.28
2022-08-31T20:57:38.016Z,21.14
2022-08-31T21:00:13.146Z,21.22
2022-08-31T21:02:42.676Z,21.12
2022-08-31T21:08:02.655Z,20.98
2022-08-31T21:10:37.096Z,20.88
2022-08-31T21:13:15.285Z,20.77
2022-08-31T21:15:57.428Z,20.62
2022-08-31T21:18:33.928Z,20.69
2022-08-31T21:21:32.251Z,20.82
2022-08-31T21:24:02.050Z,20.89
2022-08-31T21:26:34.609Z,20.96
2022-08-31T21:29:05.306Z,21.00
2022-08-31T21:31:35.974Z,21.01
2022-08-31T21:34:12.018Z,20.97
2022-08-31T21:36:41.285Z,20.94
2022-08-31T21:39:14.606Z,20.88
2022-08-31T21:41:45.296Z,20.85
2022-08-31T21:44:17.447Z,20.71
2022-08-31T21:46:50.624Z,20.71
2022-08-31T21:49:20.574Z,20.74
2022-08-31T21:51:56.207Z,20.78
2022-08-31T21:54:30.985Z,20.85
2022-08-31T21:57:02.331Z,20.82
2022-08-31T21:59:33.528Z,20.89
2022-08-31T22:02:14.113Z,20.87
2022-08-31T22:04:44.101Z,20.83
2022-08-31T22:07:15.859Z,20.85
2022-08-31T22:09:44.084Z,20.81
2022-08-31T22:12:12.976Z,20.79
2022-08-31T22:14:42.335Z,20.84
2022-08-31T22:17:11.218Z,20.81
2022-08-31T22:19:39.716Z,20.84
2022-08-31T22:22:12.789Z,20.83
2022-08-31T22:24:43.076Z,20.82
2022-08-31T22:27:12.297Z,20.83
2022-08-31T22:29:43.265Z,20.79
2022-08-31T22:32:17.284Z,20.73
2022-08-31T22:34:46.466Z,20.67
2022-08-31T22:37:15.041Z,20.68
2022-08-31T22:39:46.166Z,20.70
2022-08-31T22:42:14.269Z,20.71
2022-08-31T22:44:43.696Z,20.63
2022-08-31T22:47:11.101Z,20.43
2022-08-31T22:49:40.956Z,20.43
2022-08-31T22:52:17.106Z,20.40
2022-08-31T22:54:45.327Z,20.34
2022-08-31T22:57:24.097Z,20.43
2022-08-31T22:59:53.613Z,20.45
2022-08-31T23:02:21.449Z,20.53
2022-08-31T23:04:52.820Z,20.55
2022-08-31T23:07:22.931Z,20.43
2022-08-31T23:09:52.261Z,20.49
2022-08-31T23:12:20.296Z,20.42
2022-08-31T23:14:49.351Z,20.34
2022-08-31T23:17:17.369Z,20.30
2022-08-31T23:19:52.891Z,20.32
2022-08-31T23:22:24.497Z,20.30
2022-08-31T23:24:53.194Z,20.29
2022-08-31T23:27:22.898Z,20.16
2022-08-31T23:29:53.530Z,20.16
2022-08-31T23:32:30.890Z,20.28
2022-08-31T23:35:00.476Z,20.19
2022-08-31T23:37:33.688Z,20.06
2022-08-31T23:40:04.733Z,20.06
2022-08-31T23:42:34.668Z,19.96
2022-08-31T23:45:03.022Z,19.89
2022-08-31T23:47:33.209Z,19.90
2022-08-31T23:50:05.075Z,19.87
2022-08-31T23:52:40.738Z,19.85
2022-08-31T23:55:11.861Z,19.91
2022-08-31T23:57:42.337Z,20.04
